createdAt,value
2019-02-07T00:01:23.689Z,13.53
2019-02-07T00:03:53.317Z,11.15
2019-02-07T00:06:22.936Z,13.05
2019-02-07T00:08:52.718Z,14.00
2019-02-07T00:11:22.307Z,10.03
2019-02-07T00:13:51.940Z,12.30
2019-02-07T00:16:22.067Z,11.10
2019-02-07T00:18:51.543Z,9.80
2019-02-07T00:21:21.125Z,12.40
2019-02-07T00:23:50.747Z,12.60
2019-02-07T00:26:20.303Z,13.75
2019-02-07T00:28:49.891Z,11.95
2019-02-07T00:31:19.959Z,15.90
2019-02-07T00:34:08.797Z,12.10
2019-02-07T00:36:38.283Z,9.00
2019-02-07T00:39:09.414Z,13.65
2019-02-07T00:41:39.466Z,15.65
2019-02-07T00:44:09.029Z,13.62
2019-02-07T00:46:38.544Z,15.18
2019-02-07T00:49:08.095Z,6.97
2019-02-07T00:51:37.607Z,11.50
2019-02-07T00:54:07.182Z,10.28
2019-02-07T00:56:39.742Z,9.08
2019-02-07T00:59:08.339Z,12.45
2019-02-07T01:01:37.901Z,16.87
2019-02-07T01:04:07.519Z,14.73
2019-02-07T01:06:37.041Z,15.88
2019-02-07T01:09:08.328Z,9.78
2019-02-07T01:11:37.825Z,15.28
2019-02-07T01:14:07.384Z,8.98
2019-02-07T01:16:36.945Z,16.00
2019-02-07T01:19:06.589Z,13.35
2019-02-07T01:21:36.074Z,18.92
2019-02-07T01:24:06.786Z,9.93
2019-02-07T01:26:36.266Z,11.05
2019-02-07T01:29:06.098Z,16.67
2019-02-07T01:31:35.722Z,13.10
2019-02-07T01:34:05.344Z,12.53
2019-02-07T01:36:34.859Z,16.77
2019-02-07T01:39:07.392Z,12.05
2019-02-07T01:41:37.050Z,19.07
2019-02-07T01:44:06.533Z,10.90
2019-02-07T01:46:36.174Z,12.05
2019-02-07T01:49:05.813Z,15.60
2019-02-07T01:51:35.384Z,12.10
2019-02-07T01:54:05.169Z,9.20
2019-02-07T01:56:34.822Z,13.40
2019-02-07T01:59:04.394Z,14.10
2019-02-07T02:01:33.896Z,11.40
2019-02-07T02:04:03.402Z,10.78
2019-02-07T02:06:32.960Z,9.88
2019-02-07T02:09:02.618Z,12.45
2019-02-07T02:11:32.233Z,12.78
2019-02-07T02:14:01.795Z,17.75
2019-02-07T02:16:31.368Z,16.17
2019-02-07T02:19:00.911Z,12.20
2019-02-07T02:21:30.767Z,15.98
2019-02-07T02:24:00.262Z,15.23
2019-02-07T02:26:29.951Z,13.50
2019-02-07T02:28:59.435Z,13.62
2019-02-07T02:31:29.006Z,8.40
2019-02-07T02:33:58.552Z,14.47
2019-02-07T02:36:28.499Z,15.10
2019-02-07T02:38:57.982Z,14.47
2019-02-07T02:41:27.528Z,14.03
2019-02-07T02:43:57.088Z,17.07
2019-02-07T02:46:26.636Z,13.80
2019-02-07T02:48:56.127Z,16.37
2019-02-07T02:51:26.094Z,11.33
2019-02-07T02:53:57.732Z,12.45
2019-02-07T02:56:27.217Z,16.50
2019-02-07T02:58:56.787Z,15.05
2019-02-07T03:01:33.719Z,18.65
2019-02-07T03:04:05.316Z,11.12
2019-02-07T03:06:36.573Z,16.32
2019-02-07T03:09:12.758Z,10.95
2019-02-07T03:11:58.946Z,12.07
2019-02-07T03:14:32.819Z,15.53
2019-02-07T03:17:16.268Z,18.25
2019-02-07T03:19:56.157Z,15.70
2019-02-07T03:22:33.445Z,14.50
2019-02-07T03:25:19.883Z,12.93
2019-02-07T03:28:07.144Z,13.43
2019-02-07T03:30:39.066Z,15.40
2019-02-07T03:33:10.192Z,11.75
2019-02-07T03:35:45.487Z,15.70
2019-02-07T03:38:22.346Z,14.78
2019-02-07T03:40:56.106Z,16.25
2019-02-07T03:43:36.038Z,19.57
2019-02-07T03:46:07.666Z,16.80
2019-02-07T03:48:53.927Z,12.40
2019-02-07T03:51:27.901Z,14.43
2019-02-07T03:54:00.256Z,13.90
2019-02-07T03:56:32.228Z,13.13
2019-02-07T03:59:09.142Z,14.05
2019-02-07T04:01:56.086Z,12.78
2019-02-07T04:04:33.345Z,14.80
2019-02-07T04:07:05.369Z,16.77
2019-02-07T04:09:34.692Z,14.45
2019-02-07T04:12:09.930Z,11.28
2019-02-07T04:14:48.292Z,15.03
2019-02-07T04:17:22.101Z,14.65
2019-02-07T04:20:09.673Z,12.53
2019-02-07T04:22:49.642Z,13.68
2019-02-07T04:25:18.929Z,8.65
2019-02-07T04:28:06.351Z,12.33
2019-02-07T04:30:37.606Z,16.87
2019-02-07T04:33:24.968Z,15.83
2019-02-07T04:36:12.465Z,12.30
2019-02-07T04:38:46.454Z,13.58
2019-02-07T04:41:17.618Z,18.92
2019-02-07T04:43:52.393Z,10.10
2019-02-07T04:46:37.225Z,14.55
2019-02-07T04:49:08.376Z,16.75
2019-02-07T04:51:41.931Z,11.03
2019-02-07T04:54:31.239Z,10.70
2019-02-07T04:57:06.239Z,10.28
2019-02-07T04:59:49.253Z,15.18
2019-02-07T05:02:23.395Z,11.10
2019-02-07T05:04:57.595Z,15.95
2019-02-07T05:07:28.734Z,12.60
2019-02-07T05:10:03.019Z,15.32
2019-02-07T05:12:49.517Z,10.23
2019-02-07T05:15:27.892Z,16.65
2019-02-07T05:18:10.751Z,10.70
2019-02-07T05:20:40.314Z,10.75
2019-02-07T05:23:09.652Z,14.20
2019-02-07T05:25:56.837Z,11.00
2019-02-07T05:28:46.235Z,12.13
2019-02-07T05:31:17.734Z,15.75
2019-02-07T05:34:04.655Z,14.13
2019-02-07T05:36:53.689Z,11.43
2019-02-07T05:39:27.910Z,12.20
2019-02-07T05:42:01.572Z,11.75
2019-02-07T05:44:35.486Z,12.05
2019-02-07T05:47:12.907Z,11.78
2019-02-07T05:49:49.791Z,11.33
2019-02-07T05:52:35.894Z,14.10
2019-02-07T05:55:07.563Z,14.45
2019-02-07T05:57:38.780Z,13.48
2019-02-07T06:00:25.920Z,11.05
2019-02-07T06:03:01.177Z,9.10
2019-02-07T06:05:33.439Z,11.18
2019-02-07T06:08:10.319Z,7.92
2019-02-07T06:10:53.582Z,10.82
2019-02-07T06:13:24.724Z,11.70
2019-02-07T06:16:12.196Z,14.15
2019-02-07T06:19:01.522Z,13.00
2019-02-07T06:21:39.899Z,8.90
2019-02-07T06:24:11.039Z,11.25
2019-02-07T06:26:42.258Z,13.03
2019-02-07T06:29:19.175Z,9.03
2019-02-07T06:31:50.361Z,8.93
2019-02-07T06:34:38.076Z,11.30
2019-02-07T06:37:09.293Z,7.67
2019-02-07T06:39:43.190Z,10.15
2019-02-07T06:42:30.956Z,12.50
2019-02-07T06:45:06.238Z,9.80
2019-02-07T06:47:53.889Z,10.53
2019-02-07T06:50:23.202Z,12.80
2019-02-07T06:53:03.402Z,10.40
2019-02-07T06:55:49.251Z,10.40
2019-02-07T06:58:23.733Z,9.80
2019-02-07T07:00:53.070Z,12.10
2019-02-07T07:03:27.018Z,12.10
2019-02-07T07:06:06.951Z,10.38
2019-02-07T07:08:47.343Z,11.25
2019-02-07T07:11:18.466Z,10.10
2019-02-07T07:13:49.672Z,9.35
2019-02-07T07:16:28.035Z,8.58
2019-02-07T07:19:14.268Z,11.73
2019-02-07T07:21:52.483Z,9.50
2019-02-07T07:24:39.932Z,11.45
2019-02-07T07:27:12.181Z,10.40
2019-02-07T07:29:53.558Z,8.25
2019-02-07T07:32:27.866Z,12.35
2019-02-07T07:35:14.433Z,9.60
2019-02-07T07:37:43.778Z,11.60
2019-02-07T07:40:32.200Z,9.50
2019-02-07T07:43:03.349Z,10.05
2019-02-07T07:45:50.583Z,9.45
2019-02-07T07:48:22.583Z,13.80
2019-02-07T07:51:04.230Z,12.20
2019-02-07T07:53:38.013Z,8.35
2019-02-07T07:56:09.219Z,10.82
2019-02-07T07:58:55.229Z,13.80
2019-02-07T08:01:36.817Z,11.03
2019-02-07T08:04:08.525Z,10.43
2019-02-07T08:06:42.441Z,9.38
2019-02-07T08:09:30.324Z,13.28
2019-02-07T08:12:10.322Z,9.05
2019-02-07T08:14:51.617Z,11.80
2019-02-07T08:17:23.098Z,9.73
2019-02-07T08:19:54.283Z,6.22
2019-02-07T08:22:41.458Z,7.83
2019-02-07T08:25:23.707Z,8.33
2019-02-07T08:27:55.011Z,10.65
2019-02-07T08:30:36.216Z,9.65
2019-02-07T08:33:13.952Z,5.85
2019-02-07T08:35:45.430Z,5.58
2019-02-07T08:38:17.540Z,7.70
2019-02-07T08:40:54.751Z,6.10
2019-02-07T08:43:25.889Z,7.95
2019-02-07T08:46:13.376Z,7.80
2019-02-07T08:49:03.085Z,6.37
2019-02-07T08:51:50.469Z,7.60
2019-02-07T08:54:38.003Z,7.45
2019-02-07T08:57:09.227Z,6.78
2019-02-07T08:59:40.451Z,6.78
2019-02-07T09:02:21.208Z,7.72
2019-02-07T09:05:08.714Z,3.97
2019-02-07T09:07:39.870Z,5.10
2019-02-07T09:10:31.823Z,3.47
2019-02-07T09:13:11.870Z,2.60
2019-02-07T09:15:43.915Z,4.00
2019-02-07T09:18:15.927Z,3.87
2019-02-07T09:21:00.559Z,3.10
2019-02-07T09:23:44.913Z,4.33
2019-02-07T09:26:14.361Z,1.50
2019-02-07T09:28:45.501Z,6.93
2019-02-07T09:31:28.928Z,2.30
2019-02-07T09:34:16.688Z,3.40
2019-02-07T09:36:47.824Z,4.47
2019-02-07T09:39:35.182Z,2.60
2019-02-07T09:42:10.736Z,5.40
2019-02-07T09:44:58.480Z,2.30
2019-02-07T09:47:44.570Z,8.17
2019-02-07T09:50:21.546Z,4.40
2019-02-07T09:53:04.678Z,1.40
2019-02-07T09:55:45.264Z,7.10
2019-02-07T09:58:26.401Z,12.23
2019-02-07T10:01:13.677Z,8.63
2019-02-07T10:03:44.811Z,5.83
2019-02-07T10:06:18.474Z,2.93
2019-02-07T10:09:05.743Z,8.27
2019-02-07T10:11:43.664Z,6.33
2019-02-07T10:14:26.567Z,5.63
2019-02-07T10:16:58.037Z,4.30
2019-02-07T10:19:45.558Z,5.47
2019-02-07T10:22:31.990Z,8.17
2019-02-07T10:25:21.532Z,4.30
2019-02-07T10:27:55.544Z,2.23
2019-02-07T10:30:40.253Z,4.87
2019-02-07T10:33:20.548Z,4.87
2019-02-07T10:35:51.780Z,4.90
2019-02-07T10:38:33.111Z,6.47
2019-02-07T10:41:08.731Z,7.80
2019-02-07T10:43:51.664Z,7.37
2019-02-07T10:46:37.890Z,13.53
2019-02-07T10:49:22.795Z,5.67
2019-02-07T10:51:53.973Z,13.37
2019-02-07T10:54:29.205Z,10.57
2019-02-07T10:57:00.421Z,11.73
2019-02-07T10:59:34.079Z,7.20
2019-02-07T11:02:22.594Z,5.20
2019-02-07T11:05:12.543Z,2.63
2019-02-07T11:07:48.500Z,5.43
2019-02-07T11:10:36.068Z,5.13
2019-02-07T11:13:07.309Z,4.33
2019-02-07T11:15:54.862Z,7.10
2019-02-07T11:18:28.986Z,4.20
2019-02-07T11:21:03.435Z,10.07
2019-02-07T11:23:43.409Z,8.70
2019-02-07T11:26:23.916Z,6.07
2019-02-07T11:29:06.643Z,10.57
2019-02-07T11:31:46.784Z,9.23
2019-02-07T11:34:21.167Z,4.47
2019-02-07T11:37:08.693Z,9.60
2019-02-07T11:39:42.841Z,4.30
2019-02-07T11:42:14.052Z,8.80
2019-02-07T11:44:50.588Z,3.13
2019-02-07T11:47:24.252Z,6.10
2019-02-07T11:50:01.350Z,6.23
2019-02-07T11:52:33.604Z,4.30
2019-02-07T11:55:10.740Z,4.40
2019-02-07T11:57:42.244Z,12.90
2019-02-07T12:00:33.005Z,4.00
2019-02-07T12:03:19.434Z,4.47
2019-02-07T12:05:56.446Z,6.10
2019-02-07T12:08:30.395Z,8.50
2019-02-07T12:11:01.555Z,5.30
2019-02-07T12:13:35.211Z,5.93
2019-02-07T12:16:25.250Z,6.30
2019-02-07T12:18:59.281Z,6.30
2019-02-07T12:21:36.106Z,5.90
2019-02-07T12:24:19.952Z,2.97
2019-02-07T12:26:57.981Z,3.43
2019-02-07T12:29:47.311Z,5.30
2019-02-07T12:32:16.542Z,4.03
2019-02-07T12:34:47.745Z,3.23
2019-02-07T12:37:19.995Z,4.93
2019-02-07T12:40:07.138Z,6.07
2019-02-07T12:42:44.441Z,5.33
2019-02-07T12:45:25.007Z,5.43
2019-02-07T12:48:14.443Z,7.70
2019-02-07T12:51:01.469Z,4.67
2019-02-07T12:53:44.339Z,3.00
2019-02-07T12:56:17.685Z,5.10
2019-02-07T12:59:04.657Z,8.13
2019-02-07T13:01:37.044Z,9.07
2019-02-07T13:04:09.031Z,6.30
2019-02-07T13:06:56.292Z,3.70
2019-02-07T13:09:34.688Z,2.10
2019-02-07T13:12:14.715Z,6.13
2019-02-07T13:14:46.760Z,6.93
2019-02-07T13:17:18.000Z,5.20
2019-02-07T13:19:52.131Z,8.83
2019-02-07T13:22:23.372Z,4.57
2019-02-07T13:25:00.668Z,3.57
2019-02-07T13:27:34.897Z,4.87
2019-02-07T13:30:27.063Z,4.90
2019-02-07T13:33:09.604Z,13.93
2019-02-07T13:35:40.182Z,1.37
2019-02-07T13:38:17.037Z,7.87
2019-02-07T13:41:06.859Z,4.00
2019-02-07T13:43:38.166Z,5.90
2019-02-07T13:46:28.143Z,6.93
2019-02-07T13:49:15.157Z,6.07
2019-02-07T13:52:04.499Z,6.00
2019-02-07T13:54:36.014Z,5.70
2019-02-07T13:57:23.587Z,5.10
2019-02-07T13:59:54.866Z,4.80
2019-02-07T14:02:30.404Z,5.97
2019-02-07T14:05:07.786Z,10.30
2019-02-07T14:07:39.915Z,3.10
2019-02-07T14:10:30.071Z,3.67
2019-02-07T14:13:17.290Z,3.67
2019-02-07T14:15:46.730Z,4.30
2019-02-07T14:18:24.030Z,3.13
2019-02-07T14:21:10.321Z,2.07
2019-02-07T14:23:44.433Z,1.83
2019-02-07T14:26:31.750Z,2.70
2019-02-07T14:29:12.225Z,5.23
2019-02-07T14:31:59.771Z,4.00
2019-02-07T14:34:36.886Z,6.40
2019-02-07T14:37:24.487Z,1.37
2019-02-07T14:40:11.340Z,4.73
2019-02-07T14:42:51.613Z,2.80
2019-02-07T14:45:28.818Z,2.50
2019-02-07T14:47:58.415Z,1.60
2019-02-07T14:50:28.670Z,4.07
2019-02-07T14:52:58.218Z,5.90
2019-02-07T14:55:27.797Z,2.30
2019-02-07T14:57:57.438Z,5.83
2019-02-07T15:00:27.743Z,2.70
2019-02-07T15:02:57.237Z,11.80
2019-02-07T15:05:26.841Z,6.43
2019-02-07T15:07:56.413Z,5.90
2019-02-07T15:10:25.908Z,4.27
2019-02-07T15:12:55.427Z,3.37
2019-02-07T15:15:25.002Z,6.77
2019-02-07T15:17:54.508Z,3.23
2019-02-07T15:20:26.150Z,3.10
2019-02-07T15:22:55.403Z,3.10
2019-02-07T15:25:25.542Z,2.47
2019-02-07T15:27:55.124Z,1.70
2019-02-07T15:30:24.784Z,2.90
2019-02-07T15:32:54.281Z,3.40
2019-02-07T15:35:34.131Z,2.70
2019-02-07T15:38:03.701Z,7.10
2019-02-07T15:40:33.206Z,10.90
2019-02-07T15:43:02.941Z,4.00
2019-02-07T15:45:32.643Z,4.23
2019-02-07T15:48:02.272Z,4.83
2019-02-07T15:50:37.662Z,3.27
2019-02-07T15:53:04.930Z,7.03
2019-02-07T15:55:34.532Z,7.70
2019-02-07T15:58:04.346Z,3.83
2019-02-07T16:00:42.700Z,8.23
2019-02-07T16:03:29.911Z,3.07
2019-02-07T16:05:59.406Z,3.43
2019-02-07T16:08:29.022Z,2.00
2019-02-07T16:10:58.572Z,6.17
2019-02-07T16:13:28.209Z,2.47
2019-02-07T16:15:57.787Z,3.53
2019-02-07T16:18:27.283Z,2.03
2019-02-07T16:20:56.938Z,2.83
2019-02-07T16:23:27.513Z,4.70
2019-02-07T16:25:57.134Z,4.13
2019-02-07T16:28:26.896Z,4.50
2019-02-07T16:30:56.545Z,3.10
2019-02-07T16:33:26.132Z,2.60
2019-02-07T16:35:55.675Z,2.10
2019-02-07T16:38:25.250Z,2.20
2019-02-07T16:40:54.800Z,6.80
2019-02-07T16:43:25.350Z,8.60
2019-02-07T16:45:54.839Z,2.40
2019-02-07T16:48:24.345Z,5.60
2019-02-07T16:51:00.344Z,1.90
2019-02-07T16:53:25.283Z,4.57
2019-02-07T16:55:54.832Z,4.23
2019-02-07T16:58:24.657Z,3.03
2019-02-07T17:00:54.170Z,2.08
2019-02-07T17:03:23.797Z,6.17
2019-02-07T17:05:53.421Z,2.02
2019-02-07T17:08:22.998Z,1.32
2019-02-07T17:10:52.561Z,7.62
2019-02-07T17:13:22.212Z,5.45
2019-02-07T17:15:51.865Z,4.10
2019-02-07T17:18:21.466Z,6.95
2019-02-07T17:20:51.202Z,4.35
2019-02-07T17:23:20.749Z,2.30
2019-02-07T17:25:52.352Z,5.55
2019-02-07T17:28:21.931Z,5.15
2019-02-07T17:30:51.470Z,7.00
2019-02-07T17:33:21.026Z,2.10
2019-02-07T17:35:51.452Z,3.67
2019-02-07T17:38:21.017Z,3.55
2019-02-07T17:40:50.581Z,8.10
2019-02-07T17:43:20.079Z,5.47
2019-02-07T17:45:49.806Z,4.03
2019-02-07T17:48:19.359Z,11.80
2019-02-07T17:50:48.992Z,4.45
2019-02-07T17:53:18.544Z,3.02
2019-02-07T17:55:48.077Z,8.55
2019-02-07T17:58:17.734Z,3.20
2019-02-07T18:01:02.713Z,4.67
2019-02-07T18:03:32.605Z,3.92
2019-02-07T18:06:02.115Z,1.45
2019-02-07T18:08:32.069Z,3.17
2019-02-07T18:11:01.710Z,4.42
2019-02-07T18:13:31.318Z,1.85
2019-02-07T18:16:00.968Z,3.80
2019-02-07T18:18:30.601Z,2.30
2019-02-07T18:21:00.259Z,2.17
2019-02-07T18:23:30.270Z,2.72
2019-02-07T18:25:59.854Z,2.77
2019-02-07T18:28:29.553Z,2.80
2019-02-07T18:30:59.152Z,3.50
2019-02-07T18:33:28.736Z,1.55
2019-02-07T18:35:58.236Z,3.58
2019-02-07T18:38:28.109Z,1.70
2019-02-07T18:40:57.670Z,4.83
2019-02-07T18:43:27.260Z,3.50
2019-02-07T18:45:56.809Z,1.52
2019-02-07T18:48:26.287Z,3.35
2019-02-07T18:50:55.878Z,2.20
2019-02-07T18:53:25.620Z,4.92
2019-02-07T18:55:56.596Z,8.08
2019-02-07T18:58:26.144Z,1.65
2019-02-07T19:00:55.795Z,7.75
2019-02-07T19:03:25.304Z,3.42
2019-02-07T19:06:07.397Z,1.65
2019-02-07T19:08:36.967Z,1.90
2019-02-07T19:11:06.676Z,3.60
2019-02-07T19:13:36.268Z,1.90
2019-02-07T19:16:06.670Z,2.72
2019-02-07T19:18:36.182Z,2.30
2019-02-07T19:21:05.964Z,3.75
2019-02-07T19:23:35.549Z,2.72
2019-02-07T19:26:05.216Z,7.50
2019-02-07T19:28:34.890Z,2.10
2019-02-07T19:31:06.469Z,5.60
2019-02-07T19:33:36.134Z,4.58
2019-02-07T19:36:05.923Z,2.75
2019-02-07T19:38:35.520Z,1.05
2019-02-07T19:41:05.200Z,5.85
2019-02-07T19:43:54.010Z,4.70
2019-02-07T19:46:24.053Z,7.22
2019-02-07T19:48:53.562Z,1.75
2019-02-07T19:51:23.231Z,1.65
2019-02-07T19:53:52.862Z,3.42
2019-02-07T19:56:22.454Z,4.83
2019-02-07T19:58:51.994Z,6.70
2019-02-07T20:01:21.778Z,1.70
2019-02-07T20:03:51.260Z,2.90
2019-02-07T20:06:20.734Z,1.82
2019-02-07T20:08:50.299Z,1.10
2019-02-07T20:11:19.855Z,3.10
2019-02-07T20:13:49.424Z,1.90
2019-02-07T20:16:19.065Z,2.37
2019-02-07T20:18:48.638Z,1.77
2019-02-07T20:21:18.195Z,2.20
2019-02-07T20:23:47.690Z,3.22
2019-02-07T20:26:17.193Z,5.80
2019-02-07T20:28:46.700Z,2.27
2019-02-07T20:31:16.264Z,5.20
2019-02-07T20:33:46.188Z,2.15
2019-02-07T20:36:15.694Z,2.80
2019-02-07T20:38:45.203Z,2.17
2019-02-07T20:41:14.760Z,1.72
2019-02-07T20:43:44.302Z,1.95
2019-02-07T20:46:13.839Z,4.65
2019-02-07T20:48:43.403Z,2.20
2019-02-07T20:51:13.148Z,1.00
2019-02-07T20:53:42.798Z,2.95
2019-02-07T20:56:12.347Z,1.47
2019-02-07T20:58:41.917Z,2.65
2019-02-07T21:01:11.409Z,3.40
2019-02-07T21:03:40.975Z,2.55
2019-02-07T21:06:10.818Z,2.65
2019-02-07T21:08:40.299Z,1.72
2019-02-07T21:11:09.806Z,2.58
2019-02-07T21:13:39.310Z,7.55
2019-02-07T21:16:08.866Z,3.47
2019-02-07T21:18:38.362Z,4.15
2019-02-07T21:21:09.888Z,1.60
2019-02-07T21:23:39.414Z,4.35
2019-02-07T21:26:08.932Z,2.45
2019-02-07T21:28:38.432Z,9.10
2019-02-07T21:31:07.933Z,3.80
2019-02-07T21:33:37.508Z,6.40
2019-02-07T21:36:07.088Z,3.17
2019-02-07T21:38:36.781Z,1.52
2019-02-07T21:41:06.392Z,3.35
2019-02-07T21:43:35.980Z,8.48
2019-02-07T21:46:06.019Z,2.42
2019-02-07T21:48:35.517Z,3.65
2019-02-07T21:51:05.356Z,1.95
2019-02-07T21:53:34.844Z,2.42
2019-02-07T21:56:04.609Z,4.17
2019-02-07T21:58:34.160Z,3.57
2019-02-07T22:01:03.729Z,1.72
2019-02-07T22:03:33.392Z,3.37
2019-02-07T22:06:02.935Z,4.72
2019-02-07T22:08:32.452Z,3.62
2019-02-07T22:11:02.023Z,11.68
2019-02-07T22:13:31.520Z,2.08
2019-02-07T22:16:01.026Z,3.55
2019-02-07T22:18:30.527Z,1.50
2019-02-07T22:21:00.131Z,1.87
2019-02-07T22:23:29.649Z,1.40
2019-02-07T22:25:59.140Z,1.70
2019-02-07T22:28:28.706Z,4.28
2019-02-07T22:30:58.238Z,1.40
2019-02-07T22:33:27.821Z,2.55
2019-02-07T22:35:57.364Z,1.10
2019-02-07T22:38:26.913Z,3.05
2019-02-07T22:40:56.558Z,2.65
2019-02-07T22:43:26.119Z,4.87
2019-02-07T22:45:55.610Z,2.55
2019-02-07T22:48:25.128Z,7.45
2019-02-07T22:50:55.599Z,3.05
2019-02-07T22:53:25.294Z,1.25
2019-02-07T22:55:54.772Z,2.22
2019-02-07T22:58:24.259Z,2.17
2019-02-07T23:01:07.380Z,1.22
2019-02-07T23:03:37.114Z,2.37
2019-02-07T23:06:07.291Z,1.05
2019-02-07T23:08:36.963Z,6.97
2019-02-07T23:11:08.147Z,1.80
2019-02-07T23:13:38.759Z,6.80
2019-02-07T23:16:09.668Z,2.33
2019-02-07T23:18:39.762Z,3.67
2019-02-07T23:21:09.981Z,5.40
2019-02-07T23:23:39.550Z,2.40
2019-02-07T23:26:09.085Z,1.35
2019-02-07T23:28:38.623Z,3.05
2019-02-07T23:31:08.413Z,1.10
2019-02-07T23:33:38.441Z,1.80
2019-02-07T23:36:08.685Z,2.25
2019-02-07T23:38:38.374Z,5.17
2019-02-07T23:41:08.060Z,1.22
2019-02-07T23:43:37.838Z,1.20
2019-02-07T23:46:07.518Z,3.80
2019-02-07T23:48:37.215Z,3.60
2019-02-07T23:51:07.514Z,2.27
2019-02-07T23:53:37.207Z,3.22
2019-02-07T23:56:06.972Z,1.00
2019-02-07T23:58:36.615Z,3.40
